sensor_id;sensor_type;location;lat;lon;timestamp;P1;durP1;ratioP1;P2;durP2;ratioP2
21233;SDS011;10774;42.178;26.578;2022-07-22T00:01:33;8.73;;;3.92;;
21233;SDS011;10774;42.178;26.578;2022-07-22T00:03:59;5.05;;;3.63;;
21233;SDS011;10774;42.178;26.578;2022-07-22T00:06:25;10.30;;;3.50;;
21233;SDS011;10774;42.178;26.578;2022-07-22T00:08:50;7.90;;;3.53;;
21233;SDS011;10774;42.178;26.578;2022-07-22T00:11:16;7.22;;;4.00;;
21233;SDS011;10774;42.178;26.578;2022-07-22T00:13:41;6.20;;;3.60;;
21233;SDS011;10774;42.178;26.578;2022-07-22T00:16:06;5.70;;;3.75;;
21233;SDS011;10774;42.178;26.578;2022-07-22T00:18:32;5.85;;;3.58;;
21233;SDS011;10774;42.178;26.578;2022-07-22T00:20:57;7.65;;;3.80;;
21233;SDS011;10774;42.178;26.578;2022-07-22T00:23:23;7.53;;;3.92;;
21233;SDS011;10774;42.178;26.578;2022-07-22T00:25:48;7.45;;;3.80;;
21233;SDS011;10774;42.178;26.578;2022-07-22T00:28:14;6.25;;;3.70;;
21233;SDS011;10774;42.178;26.578;2022-07-22T00:30:39;4.50;;;3.53;;
21233;SDS011;10774;42.178;26.578;2022-07-22T00:33:05;6.10;;;3.58;;
21233;SDS011;10774;42.178;26.578;2022-07-22T00:35:30;5.28;;;3.53;;
21233;SDS011;10774;42.178;26.578;2022-07-22T00:37:55;6.35;;;3.47;;
21233;SDS011;10774;42.178;26.578;2022-07-22T00:40:21;6.22;;;3.10;;
21233;SDS011;10774;42.178;26.578;2022-07-22T00:42:46;5.57;;;3.50;;
21233;SDS011;10774;42.178;26.578;2022-07-22T00:45:12;7.18;;;3.65;;
21233;SDS011;10774;42.178;26.578;2022-07-22T00:47:37;4.68;;;3.40;;
21233;SDS011;10774;42.178;26.578;2022-07-22T00:50:04;5.72;;;3.90;;
21233;SDS011;10774;42.178;26.578;2022-07-22T00:52:30;9.40;;;3.95;;
21233;SDS011;10774;42.178;26.578;2022-07-22T00:54:58;8.60;;;3.78;;
21233;SDS011;10774;42.178;26.578;2022-07-22T00:57:24;5.03;;;3.58;;
21233;SDS011;10774;42.178;26.578;2022-07-22T00:59:49;6.45;;;3.63;;
21233;SDS011;10774;42.178;26.578;2022-07-22T01:02:15;5.63;;;3.53;;
21233;SDS011;10774;42.178;26.578;2022-07-22T01:04:41;7.63;;;3.65;;
21233;SDS011;10774;42.178;26.578;2022-07-22T01:07:06;4.75;;;3.65;;
21233;SDS011;10774;42.178;26.578;2022-07-22T01:09:32;5.63;;;3.38;;
21233;SDS011;10774;42.178;26.578;2022-07-22T01:11:58;9.93;;;3.95;;
21233;SDS011;10774;42.178;26.578;2022-07-22T01:14:23;6.22;;;3.67;;
21233;SDS011;10774;42.178;26.578;2022-07-22T01:16:48;5.65;;;3.85;;
21233;SDS011;10774;42.178;26.578;2022-07-22T01:19:14;5.45;;;3.67;;
21233;SDS011;10774;42.178;26.578;2022-07-22T01:21:39;6.10;;;3.70;;
21233;SDS011;10774;42.178;26.578;2022-07-22T01:24:06;5.07;;;3.55;;
21233;SDS011;10774;42.178;26.578;2022-07-22T01:26:32;4.43;;;3.70;;
21233;SDS011;10774;42.178;26.578;2022-07-22T01:28:58;6.32;;;3.60;;
21233;SDS011;10774;42.178;26.578;2022-07-22T01:31:24;7.97;;;3.80;;
21233;SDS011;10774;42.178;26.578;2022-07-22T01:33:49;6.93;;;3.58;;
21233;SDS011;10774;42.178;26.578;2022-07-22T01:36:15;6.13;;;3.80;;
21233;SDS011;10774;42.178;26.578;2022-07-22T01:38:40;8.00;;;3.80;;
21233;SDS011;10774;42.178;26.578;2022-07-22T01:41:06;9.90;;;4.10;;
21233;SDS011;10774;42.178;26.578;2022-07-22T01:43:31;4.88;;;3.75;;
21233;SDS011;10774;42.178;26.578;2022-07-22T01:45:57;5.38;;;3.55;;
21233;SDS011;10774;42.178;26.578;2022-07-22T01:48:23;5.93;;;4.10;;
21233;SDS011;10774;42.178;26.578;2022-07-22T01:50:48;8.30;;;4.05;;
21233;SDS011;10774;42.178;26.578;2022-07-22T01:53:14;6.15;;;3.85;;
21233;SDS011;10774;42.178;26.578;2022-07-22T01:55:40;5.13;;;3.63;;
21233;SDS011;10774;42.178;26.578;2022-07-22T01:58:06;9.77;;;3.95;;
21233;SDS011;10774;42.178;26.578;2022-07-22T02:00:32;6.18;;;3.50;;
21233;SDS011;10774;42.178;26.578;2022-07-22T02:02:58;9.80;;;4.00;;
21233;SDS011;10774;42.178;26.578;2022-07-22T02:05:23;8.55;;;3.85;;
21233;SDS011;10774;42.178;26.578;2022-07-22T02:07:49;6.85;;;3.80;;
21233;SDS011;10774;42.178;26.578;2022-07-22T02:10:14;5.97;;;3.60;;
21233;SDS011;10774;42.178;26.578;2022-07-22T02:12:40;6.93;;;3.65;;
21233;SDS011;10774;42.178;26.578;2022-07-22T02:15:06;6.85;;;3.85;;
21233;SDS011;10774;42.178;26.578;2022-07-22T02:17:35;10.13;;;3.28;;
21233;SDS011;10774;42.178;26.578;2022-07-22T02:20:00;6.40;;;4.00;;
21233;SDS011;10774;42.178;26.578;2022-07-22T02:22:27;4.88;;;3.70;;
21233;SDS011;10774;42.178;26.578;2022-07-22T02:24:53;5.80;;;4.00;;
21233;SDS011;10774;42.178;26.578;2022-07-22T02:27:18;6.35;;;4.05;;
21233;SDS011;10774;42.178;26.578;2022-07-22T02:29:44;8.60;;;3.83;;
21233;SDS011;10774;42.178;26.578;2022-07-22T02:32:09;7.15;;;3.80;;
21233;SDS011;10774;42.178;26.578;2022-07-22T02:34:34;7.03;;;3.97;;
21233;SDS011;10774;42.178;26.578;2022-07-22T02:37:00;7.40;;;3.60;;
21233;SDS011;10774;42.178;26.578;2022-07-22T02:39:26;6.78;;;3.65;;
21233;SDS011;10774;42.178;26.578;2022-07-22T02:41:51;4.72;;;3.95;;
21233;SDS011;10774;42.178;26.578;2022-07-22T02:44:16;5.30;;;4.00;;
21233;SDS011;10774;42.178;26.578;2022-07-22T02:46:42;8.40;;;3.75;;
21233;SDS011;10774;42.178;26.578;2022-07-22T02:49:07;5.78;;;3.50;;
21233;SDS011;10774;42.178;26.578;2022-07-22T02:51:33;10.00;;;3.70;;
21233;SDS011;10774;42.178;26.578;2022-07-22T02:53:58;6.88;;;3.78;;
21233;SDS011;10774;42.178;26.578;2022-07-22T02:56:23;4.68;;;3.78;;
21233;SDS011;10774;42.178;26.578;2022-07-22T02:58:49;7.03;;;4.07;;
21233;SDS011;10774;42.178;26.578;2022-07-22T03:01:17;7.82;;;3.83;;
21233;SDS011;10774;42.178;26.578;2022-07-22T03:03:43;6.10;;;3.70;;
21233;SDS011;10774;42.178;26.578;2022-07-22T03:06:09;6.72;;;4.40;;
21233;SDS011;10774;42.178;26.578;2022-07-22T03:08:35;5.82;;;3.92;;
21233;SDS011;10774;42.178;26.578;2022-07-22T03:11:01;7.03;;;4.10;;
21233;SDS011;10774;42.178;26.578;2022-07-22T03:13:27;10.60;;;4.00;;
21233;SDS011;10774;42.178;26.578;2022-07-22T03:15:52;7.78;;;4.00;;
21233;SDS011;10774;42.178;26.578;2022-07-22T03:18:18;7.05;;;3.63;;
21233;SDS011;10774;42.178;26.578;2022-07-22T03:20:43;6.40;;;4.03;;
21233;SDS011;10774;42.178;26.578;2022-07-22T03:23:09;6.13;;;4.13;;
21233;SDS011;10774;42.178;26.578;2022-07-22T03:25:34;7.53;;;3.88;;
21233;SDS011;10774;42.178;26.578;2022-07-22T03:28:00;9.63;;;3.83;;
21233;SDS011;10774;42.178;26.578;2022-07-22T03:30:26;6.15;;;3.67;;
21233;SDS011;10774;42.178;26.578;2022-07-22T03:32:51;7.90;;;3.70;;
21233;SDS011;10774;42.178;26.578;2022-07-22T03:35:17;6.38;;;3.78;;
21233;SDS011;10774;42.178;26.578;2022-07-22T03:37:43;10.10;;;3.88;;
21233;SDS011;10774;42.178;26.578;2022-07-22T03:40:09;6.80;;;3.95;;
21233;SDS011;10774;42.178;26.578;2022-07-22T03:42:35;6.75;;;3.88;;
21233;SDS011;10774;42.178;26.578;2022-07-22T03:45:00;5.03;;;3.70;;
21233;SDS011;10774;42.178;26.578;2022-07-22T03:47:26;8.05;;;4.05;;
21233;SDS011;10774;42.178;26.578;2022-07-22T03:49:52;9.15;;;4.00;;
21233;SDS011;10774;42.178;26.578;2022-07-22T03:52:17;12.30;;;4.15;;
21233;SDS011;10774;42.178;26.578;2022-07-22T03:54:43;7.20;;;4.47;;
21233;SDS011;10774;42.178;26.578;2022-07-22T03:57:09;11.88;;;4.13;;
21233;SDS011;10774;42.178;26.578;2022-07-22T03:59:35;12.75;;;4.55;;
21233;SDS011;10774;42.178;26.578;2022-07-22T04:02:01;8.68;;;3.92;;
21233;SDS011;10774;42.178;26.578;2022-07-22T04:04:28;10.05;;;4.25;;
21233;SDS011;10774;42.178;26.578;2022-07-22T04:06:53;18.33;;;5.03;;
21233;SDS011;10774;42.178;26.578;2022-07-22T04:09:19;22.95;;;7.05;;
21233;SDS011;10774;42.178;26.578;2022-07-22T04:11:44;14.60;;;4.85;;
21233;SDS011;10774;42.178;26.578;2022-07-22T04:14:10;9.35;;;4.43;;
21233;SDS011;10774;42.178;26.578;2022-07-22T04:16:35;8.60;;;4.25;;
21233;SDS011;10774;42.178;26.578;2022-07-22T04:19:01;8.55;;;3.97;;
21233;SDS011;10774;42.178;26.578;2022-07-22T04:21:28;7.85;;;4.13;;
21233;SDS011;10774;42.178;26.578;2022-07-22T04:23:53;7.05;;;3.97;;
21233;SDS011;10774;42.178;26.578;2022-07-22T04:26:19;9.60;;;3.53;;
21233;SDS011;10774;42.178;26.578;2022-07-22T04:28:45;6.65;;;4.15;;
21233;SDS011;10774;42.178;26.578;2022-07-22T04:31:10;7.43;;;3.80;;
21233;SDS011;10774;42.178;26.578;2022-07-22T04:33:36;10.30;;;4.05;;
21233;SDS011;10774;42.178;26.578;2022-07-22T04:36:02;7.80;;;4.15;;
21233;SDS011;10774;42.178;26.578;2022-07-22T04:38:28;8.82;;;3.80;;
21233;SDS011;10774;42.178;26.578;2022-07-22T04:40:53;6.80;;;4.00;;
21233;SDS011;10774;42.178;26.578;2022-07-22T04:43:19;8.90;;;3.55;;
21233;SDS011;10774;42.178;26.578;2022-07-22T04:45:44;5.80;;;3.90;;
21233;SDS011;10774;42.178;26.578;2022-07-22T04:48:09;9.98;;;4.07;;
21233;SDS011;10774;42.178;26.578;2022-07-22T04:50:35;13.70;;;4.07;;
21233;SDS011;10774;42.178;26.578;2022-07-22T04:53:02;7.20;;;4.20;;
21233;SDS011;10774;42.178;26.578;2022-07-22T04:55:28;9.40;;;4.32;;
21233;SDS011;10774;42.178;26.578;2022-07-22T04:57:53;12.10;;;5.18;;
21233;SDS011;10774;42.178;26.578;2022-07-22T05:00:19;11.32;;;8.73;;
21233;SDS011;10774;42.178;26.578;2022-07-22T05:02:44;17.17;;;10.80;;
21233;SDS011;10774;42.178;26.578;2022-07-22T05:05:10;13.75;;;8.10;;
21233;SDS011;10774;42.178;26.578;2022-07-22T05:07:35;10.23;;;6.95;;
21233;SDS011;10774;42.178;26.578;2022-07-22T05:10:01;9.18;;;5.53;;
21233;SDS011;10774;42.178;26.578;2022-07-22T05:12:26;11.50;;;5.32;;
21233;SDS011;10774;42.178;26.578;2022-07-22T05:14:51;9.20;;;5.05;;
21233;SDS011;10774;42.178;26.578;2022-07-22T05:17:17;11.32;;;5.60;;
21233;SDS011;10774;42.178;26.578;2022-07-22T05:19:42;8.80;;;5.07;;
21233;SDS011;10774;42.178;26.578;2022-07-22T05:22:08;15.15;;;4.80;;
21233;SDS011;10774;42.178;26.578;2022-07-22T05:24:34;10.73;;;5.13;;
21233;SDS011;10774;42.178;26.578;2022-07-22T05:27:00;17.55;;;5.30;;
21233;SDS011;10774;42.178;26.578;2022-07-22T05:29:25;9.13;;;4.53;;
21233;SDS011;10774;42.178;26.578;2022-07-22T05:31:51;8.95;;;4.80;;
21233;SDS011;10774;42.178;26.578;2022-07-22T05:34:16;16.70;;;5.55;;
21233;SDS011;10774;42.178;26.578;2022-07-22T05:36:41;12.98;;;4.40;;
21233;SDS011;10774;42.178;26.578;2022-07-22T05:39:07;8.27;;;4.40;;
21233;SDS011;10774;42.178;26.578;2022-07-22T05:41:32;8.13;;;4.07;;
21233;SDS011;10774;42.178;26.578;2022-07-22T05:43:58;7.78;;;4.60;;
21233;SDS011;10774;42.178;26.578;2022-07-22T05:46:23;9.32;;;4.38;;
21233;SDS011;10774;42.178;26.578;2022-07-22T05:48:49;10.88;;;3.78;;
21233;SDS011;10774;42.178;26.578;2022-07-22T05:51:14;10.68;;;4.50;;
21233;SDS011;10774;42.178;26.578;2022-07-22T05:53:41;8.07;;;4.10;;
21233;SDS011;10774;42.178;26.578;2022-07-22T05:56:08;8.02;;;3.80;;
21233;SDS011;10774;42.178;26.578;2022-07-22T05:58:36;11.30;;;4.10;;
21233;SDS011;10774;42.178;26.578;2022-07-22T06:01:03;11.75;;;4.63;;
21233;SDS011;10774;42.178;26.578;2022-07-22T06:03:28;6.38;;;3.90;;
21233;SDS011;10774;42.178;26.578;2022-07-22T06:05:54;6.97;;;3.53;;
21233;SDS011;10774;42.178;26.578;2022-07-22T06:08:19;9.35;;;4.15;;
21233;SDS011;10774;42.178;26.578;2022-07-22T06:10:45;10.70;;;4.13;;
21233;SDS011;10774;42.178;26.578;2022-07-22T06:13:10;7.43;;;4.35;;
21233;SDS011;10774;42.178;26.578;2022-07-22T06:15:36;12.40;;;4.55;;
21233;SDS011;10774;42.178;26.578;2022-07-22T06:18:01;11.40;;;4.28;;
21233;SDS011;10774;42.178;26.578;2022-07-22T06:20:26;11.23;;;3.90;;
21233;SDS011;10774;42.178;26.578;2022-07-22T06:22:52;8.43;;;4.00;;
21233;SDS011;10774;42.178;26.578;2022-07-22T06:25:17;11.13;;;3.70;;
21233;SDS011;10774;42.178;26.578;2022-07-22T06:27:43;12.18;;;4.10;;
21233;SDS011;10774;42.178;26.578;2022-07-22T06:30:08;8.18;;;3.42;;
21233;SDS011;10774;42.178;26.578;2022-07-22T06:32:34;11.07;;;3.85;;
21233;SDS011;10774;42.178;26.578;2022-07-22T06:35:00;6.32;;;3.65;;
21233;SDS011;10774;42.178;26.578;2022-07-22T06:37:26;5.40;;;3.30;;
21233;SDS011;10774;42.178;26.578;2022-07-22T06:39:51;7.85;;;3.90;;
21233;SDS011;10774;42.178;26.578;2022-07-22T06:42:17;8.93;;;3.63;;
21233;SDS011;10774;42.178;26.578;2022-07-22T06:44:42;6.93;;;3.70;;
21233;SDS011;10774;42.178;26.578;2022-07-22T06:47:08;10.15;;;4.00;;
21233;SDS011;10774;42.178;26.578;2022-07-22T06:49:33;7.82;;;3.50;;
21233;SDS011;10774;42.178;26.578;2022-07-22T06:51:58;7.65;;;3.45;;
21233;SDS011;10774;42.178;26.578;2022-07-22T06:54:26;7.88;;;3.13;;
21233;SDS011;10774;42.178;26.578;2022-07-22T06:56:52;10.10;;;3.50;;
21233;SDS011;10774;42.178;26.578;2022-07-22T06:59:18;3.63;;;3.03;;
21233;SDS011;10774;42.178;26.578;2022-07-22T07:01:43;6.93;;;3.72;;
21233;SDS011;10774;42.178;26.578;2022-07-22T07:04:09;9.75;;;3.70;;
21233;SDS011;10774;42.178;26.578;2022-07-22T07:06:34;6.88;;;3.40;;
21233;SDS011;10774;42.178;26.578;2022-07-22T07:09:00;5.90;;;3.30;;
21233;SDS011;10774;42.178;26.578;2022-07-22T07:11:25;16.00;;;3.38;;
21233;SDS011;10774;42.178;26.578;2022-07-22T07:13:50;11.65;;;3.97;;
21233;SDS011;10774;42.178;26.578;2022-07-22T07:16:16;6.78;;;4.07;;
21233;SDS011;10774;42.178;26.578;2022-07-22T07:18:41;7.07;;;3.92;;
21233;SDS011;10774;42.178;26.578;2022-07-22T07:21:08;8.88;;;3.85;;
21233;SDS011;10774;42.178;26.578;2022-07-22T07:23:33;10.48;;;3.72;;
21233;SDS011;10774;42.178;26.578;2022-07-22T07:25:59;4.22;;;3.30;;
21233;SDS011;10774;42.178;26.578;2022-07-22T07:28:24;9.40;;;3.92;;
21233;SDS011;10774;42.178;26.578;2022-07-22T07:30:50;9.40;;;4.30;;
21233;SDS011;10774;42.178;26.578;2022-07-22T07:33:15;7.78;;;3.72;;
21233;SDS011;10774;42.178;26.578;2022-07-22T07:35:41;6.38;;;3.53;;
21233;SDS011;10774;42.178;26.578;2022-07-22T07:38:06;6.07;;;4.00;;
21233;SDS011;10774;42.178;26.578;2022-07-22T07:40:32;8.45;;;4.50;;
21233;SDS011;10774;42.178;26.578;2022-07-22T07:42:57;8.35;;;4.10;;
21233;SDS011;10774;42.178;26.578;2022-07-22T07:45:23;10.45;;;4.22;;
21233;SDS011;10774;42.178;26.578;2022-07-22T07:47:48;9.68;;;4.30;;
21233;SDS011;10774;42.178;26.578;2022-07-22T07:50:14;6.07;;;3.88;;
21233;SDS011;10774;42.178;26.578;2022-07-22T07:52:40;7.78;;;4.03;;
21233;SDS011;10774;42.178;26.578;2022-07-22T07:55:08;8.70;;;4.35;;
21233;SDS011;10774;42.178;26.578;2022-07-22T07:57:34;7.20;;;3.95;;
21233;SDS011;10774;42.178;26.578;2022-07-22T08:00:00;8.45;;;4.60;;
21233;SDS011;10774;42.178;26.578;2022-07-22T08:02:28;11.20;;;3.88;;
21233;SDS011;10774;42.178;26.578;2022-07-22T08:04:53;6.63;;;4.05;;
21233;SDS011;10774;42.178;26.578;2022-07-22T08:07:18;11.27;;;4.20;;
21233;SDS011;10774;42.178;26.578;2022-07-22T08:09:44;6.63;;;3.80;;
21233;SDS011;10774;42.178;26.578;2022-07-22T08:12:09;9.13;;;4.28;;
21233;SDS011;10774;42.178;26.578;2022-07-22T08:14:35;6.55;;;4.63;;
21233;SDS011;10774;42.178;26.578;2022-07-22T08:17:01;8.15;;;4.57;;
21233;SDS011;10774;42.178;26.578;2022-07-22T08:19:26;7.60;;;4.53;;
21233;SDS011;10774;42.178;26.578;2022-07-22T08:21:52;8.82;;;4.80;;
21233;SDS011;10774;42.178;26.578;2022-07-22T08:24:17;7.50;;;4.63;;
21233;SDS011;10774;42.178;26.578;2022-07-22T08:26:42;11.02;;;4.55;;
21233;SDS011;10774;42.178;26.578;2022-07-22T08:29:08;8.45;;;4.75;;
21233;SDS011;10774;42.178;26.578;2022-07-22T08:31:35;11.65;;;5.00;;
21233;SDS011;10774;42.178;26.578;2022-07-22T08:34:04;8.52;;;4.90;;
21233;SDS011;10774;42.178;26.578;2022-07-22T08:36:30;6.40;;;4.03;;
21233;SDS011;10774;42.178;26.578;2022-07-22T08:38:55;7.63;;;4.60;;
21233;SDS011;10774;42.178;26.578;2022-07-22T08:41:22;7.38;;;4.20;;
21233;SDS011;10774;42.178;26.578;2022-07-22T08:43:49;5.93;;;4.28;;
21233;SDS011;10774;42.178;26.578;2022-07-22T08:46:15;9.57;;;4.40;;
21233;SDS011;10774;42.178;26.578;2022-07-22T08:48:41;8.35;;;4.70;;
21233;SDS011;10774;42.178;26.578;2022-07-22T08:51:06;7.93;;;4.40;;
21233;SDS011;10774;42.178;26.578;2022-07-22T08:53:32;7.93;;;4.68;;
21233;SDS011;10774;42.178;26.578;2022-07-22T08:55:58;7.30;;;4.65;;
21233;SDS011;10774;42.178;26.578;2022-07-22T08:58:26;5.63;;;4.90;;
21233;SDS011;10774;42.178;26.578;2022-07-22T09:03:29;5.53;;;4.95;;
21233;SDS011;10774;42.178;26.578;2022-07-22T09:05:55;8.15;;;4.93;;
21233;SDS011;10774;42.178;26.578;2022-07-22T09:08:21;9.73;;;5.03;;
21233;SDS011;10774;42.178;26.578;2022-07-22T09:10:46;8.93;;;5.03;;
21233;SDS011;10774;42.178;26.578;2022-07-22T09:13:13;10.15;;;5.88;;
21233;SDS011;10774;42.178;26.578;2022-07-22T09:15:47;12.98;;;6.97;;
21233;SDS011;10774;42.178;26.578;2022-07-22T09:18:14;13.82;;;5.88;;
21233;SDS011;10774;42.178;26.578;2022-07-22T09:20:39;12.35;;;6.70;;
21233;SDS011;10774;42.178;26.578;2022-07-22T09:23:09;11.73;;;6.30;;
21233;SDS011;10774;42.178;26.578;2022-07-22T09:25:47;9.88;;;6.80;;
21233;SDS011;10774;42.178;26.578;2022-07-22T09:28:14;7.57;;;6.22;;
21233;SDS011;10774;42.178;26.578;2022-07-22T09:30:46;10.93;;;8.05;;
21233;SDS011;10774;42.178;26.578;2022-07-22T09:33:13;10.07;;;7.68;;
21233;SDS011;10774;42.178;26.578;2022-07-22T09:35:39;12.77;;;9.43;;
21233;SDS011;10774;42.178;26.578;2022-07-22T09:38:07;14.43;;;10.30;;
21233;SDS011;10774;42.178;26.578;2022-07-22T09:40:37;14.57;;;9.57;;
21233;SDS011;10774;42.178;26.578;2022-07-22T09:43:08;13.07;;;9.10;;
21233;SDS011;10774;42.178;26.578;2022-07-22T09:48:12;11.98;;;8.45;;
21233;SDS011;10774;42.178;26.578;2022-07-22T09:50:38;12.18;;;8.05;;
21233;SDS011;10774;42.178;26.578;2022-07-22T09:53:04;14.63;;;8.20;;
21233;SDS011;10774;42.178;26.578;2022-07-22T09:55:29;8.77;;;7.88;;
21233;SDS011;10774;42.178;26.578;2022-07-22T09:57:57;10.48;;;8.98;;
21233;SDS011;10774;42.178;26.578;2022-07-22T10:00:26;10.43;;;7.90;;
21233;SDS011;10774;42.178;26.578;2022-07-22T10:02:56;8.55;;;7.65;;
21233;SDS011;10774;42.178;26.578;2022-07-22T10:05:27;13.43;;;8.35;;
21233;SDS011;10774;42.178;26.578;2022-07-22T10:07:55;8.95;;;8.05;;
21233;SDS011;10774;42.178;26.578;2022-07-22T10:10:26;13.05;;;7.45;;
21233;SDS011;10774;42.178;26.578;2022-07-22T10:12:53;10.27;;;7.97;;
21233;SDS011;10774;42.178;26.578;2022-07-22T10:15:22;8.93;;;7.97;;
21233;SDS011;10774;42.178;26.578;2022-07-22T10:17:50;11.63;;;7.53;;
21233;SDS011;10774;42.178;26.578;2022-07-22T10:20:19;12.77;;;7.60;;
21233;SDS011;10774;42.178;26.578;2022-07-22T10:22:50;10.15;;;7.65;;
21233;SDS011;10774;42.178;26.578;2022-07-22T10:25:18;12.40;;;7.38;;
21233;SDS011;10774;42.178;26.578;2022-07-22T10:30:27;10.60;;;7.22;;
21233;SDS011;10774;42.178;26.578;2022-07-22T10:33:05;10.45;;;7.57;;
21233;SDS011;10774;42.178;26.578;2022-07-22T10:35:34;13.00;;;7.07;;
21233;SDS011;10774;42.178;26.578;2022-07-22T10:38:02;8.68;;;6.65;;
21233;SDS011;10774;42.178;26.578;2022-07-22T10:40:30;10.80;;;7.22;;
21233;SDS011;10774;42.178;26.578;2022-07-22T10:43:10;14.52;;;6.38;;
21233;SDS011;10774;42.178;26.578;2022-07-22T10:45:44;9.63;;;5.82;;
21233;SDS011;10774;42.178;26.578;2022-07-22T10:48:14;6.93;;;5.70;;
21233;SDS011;10774;42.178;26.578;2022-07-22T10:50:42;14.55;;;5.85;;
21233;SDS011;10774;42.178;26.578;2022-07-22T10:53:11;11.67;;;5.00;;
21233;SDS011;10774;42.178;26.578;2022-07-22T11:01:06;8.23;;;4.80;;
21233;SDS011;10774;42.178;26.578;2022-07-22T11:03:34;7.78;;;4.50;;
21233;SDS011;10774;42.178;26.578;2022-07-22T11:08:40;6.55;;;4.32;;
21233;SDS011;10774;42.178;26.578;2022-07-22T11:11:06;6.18;;;4.28;;
21233;SDS011;10774;42.178;26.578;2022-07-22T11:13:32;6.50;;;3.90;;
21233;SDS011;10774;42.178;26.578;2022-07-22T11:18:49;5.90;;;3.20;;
21233;SDS011;10774;42.178;26.578;2022-07-22T11:21:16;4.70;;;2.85;;
21233;SDS011;10774;42.178;26.578;2022-07-22T11:23:43;6.40;;;3.30;;
21233;SDS011;10774;42.178;26.578;2022-07-22T11:26:10;8.25;;;3.30;;
21233;SDS011;10774;42.178;26.578;2022-07-22T11:28:40;5.45;;;3.30;;
21233;SDS011;10774;42.178;26.578;2022-07-22T11:31:07;5.43;;;3.40;;
21233;SDS011;10774;42.178;26.578;2022-07-22T11:33:33;5.53;;;3.10;;
21233;SDS011;10774;42.178;26.578;2022-07-22T11:36:02;5.30;;;2.85;;
21233;SDS011;10774;42.178;26.578;2022-07-22T11:38:45;9.38;;;3.40;;
21233;SDS011;10774;42.178;26.578;2022-07-22T11:41:15;9.07;;;3.72;;
21233;SDS011;10774;42.178;26.578;2022-07-22T11:43:44;11.07;;;3.58;;
21233;SDS011;10774;42.178;26.578;2022-07-22T11:46:14;6.13;;;3.30;;
21233;SDS011;10774;42.178;26.578;2022-07-22T11:48:41;5.65;;;3.65;;
21233;SDS011;10774;42.178;26.578;2022-07-22T11:51:08;6.63;;;3.55;;
21233;SDS011;10774;42.178;26.578;2022-07-22T11:53:35;6.10;;;3.35;;
21233;SDS011;10774;42.178;26.578;2022-07-22T11:56:05;9.60;;;3.38;;
21233;SDS011;10774;42.178;26.578;2022-07-22T11:58:36;10.02;;;3.35;;
21233;SDS011;10774;42.178;26.578;2022-07-22T12:01:05;4.55;;;3.13;;
21233;SDS011;10774;42.178;26.578;2022-07-22T12:03:33;7.43;;;3.30;;
21233;SDS011;10774;42.178;26.578;2022-07-22T12:06:00;5.65;;;3.10;;
21233;SDS011;10774;42.178;26.578;2022-07-22T12:08:27;9.85;;;3.33;;
21233;SDS011;10774;42.178;26.578;2022-07-22T12:10:54;6.93;;;3.47;;
21233;SDS011;10774;42.178;26.578;2022-07-22T12:13:22;10.68;;;3.60;;
21233;SDS011;10774;42.178;26.578;2022-07-22T12:15:53;5.82;;;3.38;;
21233;SDS011;10774;42.178;26.578;2022-07-22T12:18:20;5.57;;;3.33;;
21233;SDS011;10774;42.178;26.578;2022-07-22T12:20:47;6.50;;;3.42;;
21233;SDS011;10774;42.178;26.578;2022-07-22T12:23:13;6.45;;;3.38;;
21233;SDS011;10774;42.178;26.578;2022-07-22T12:25:52;6.50;;;3.40;;
21233;SDS011;10774;42.178;26.578;2022-07-22T12:28:22;3.65;;;2.90;;
21233;SDS011;10774;42.178;26.578;2022-07-22T12:30:48;7.07;;;3.13;;
21233;SDS011;10774;42.178;26.578;2022-07-22T12:33:15;4.57;;;3.47;;
21233;SDS011;10774;42.178;26.578;2022-07-22T12:35:42;11.63;;;3.92;;
21233;SDS011;10774;42.178;26.578;2022-07-22T12:38:08;8.73;;;3.22;;
21233;SDS011;10774;42.178;26.578;2022-07-22T12:40:35;6.45;;;3.03;;
21233;SDS011;10774;42.178;26.578;2022-07-22T12:43:03;6.35;;;3.67;;
21233;SDS011;10774;42.178;26.578;2022-07-22T12:45:34;7.45;;;4.10;;
21233;SDS011;10774;42.178;26.578;2022-07-22T12:50:32;5.75;;;3.45;;
21233;SDS011;10774;42.178;26.578;2022-07-22T12:53:05;6.20;;;3.72;;
21233;SDS011;10774;42.178;26.578;2022-07-22T12:55:32;5.63;;;3.47;;
21233;SDS011;10774;42.178;26.578;2022-07-22T12:57:58;6.38;;;3.13;;
21233;SDS011;10774;42.178;26.578;2022-07-22T13:00:25;7.47;;;3.50;;
21233;SDS011;10774;42.178;26.578;2022-07-22T13:02:53;7.55;;;3.97;;
21233;SDS011;10774;42.178;26.578;2022-07-22T13:05:19;9.15;;;3.90;;
21233;SDS011;10774;42.178;26.578;2022-07-22T13:07:45;10.80;;;3.88;;
21233;SDS011;10774;42.178;26.578;2022-07-22T13:10:11;8.55;;;3.90;;
21233;SDS011;10774;42.178;26.578;2022-07-22T13:12:37;8.13;;;4.22;;
21233;SDS011;10774;42.178;26.578;2022-07-22T13:15:04;8.02;;;3.80;;
21233;SDS011;10774;42.178;26.578;2022-07-22T13:17:29;7.40;;;3.75;;
21233;SDS011;10774;42.178;26.578;2022-07-22T13:19:55;14.45;;;4.03;;
21233;SDS011;10774;42.178;26.578;2022-07-22T13:22:20;7.03;;;3.50;;
21233;SDS011;10774;42.178;26.578;2022-07-22T13:24:46;6.03;;;3.13;;
21233;SDS011;10774;42.178;26.578;2022-07-22T13:27:11;11.50;;;4.50;;
21233;SDS011;10774;42.178;26.578;2022-07-22T13:29:38;8.73;;;3.00;;
21233;SDS011;10774;42.178;26.578;2022-07-22T13:32:03;5.53;;;3.00;;
21233;SDS011;10774;42.178;26.578;2022-07-22T13:34:29;4.40;;;3.13;;
21233;SDS011;10774;42.178;26.578;2022-07-22T13:36:54;6.55;;;3.20;;
21233;SDS011;10774;42.178;26.578;2022-07-22T13:39:20;8.32;;;3.00;;
21233;SDS011;10774;42.178;26.578;2022-07-22T13:41:47;6.47;;;2.70;;
21233;SDS011;10774;42.178;26.578;2022-07-22T13:44:12;10.55;;;3.13;;
21233;SDS011;10774;42.178;26.578;2022-07-22T13:46:38;7.00;;;2.75;;
21233;SDS011;10774;42.178;26.578;2022-07-22T13:49:03;8.38;;;2.72;;
21233;SDS011;10774;42.178;26.578;2022-07-22T13:51:29;4.55;;;2.90;;
21233;SDS011;10774;42.178;26.578;2022-07-22T13:53:55;7.63;;;2.63;;
21233;SDS011;10774;42.178;26.578;2022-07-22T13:56:20;5.97;;;4.25;;
21233;SDS011;10774;42.178;26.578;2022-07-22T13:58:45;9.20;;;5.18;;
21233;SDS011;10774;42.178;26.578;2022-07-22T14:01:11;7.47;;;4.20;;
21233;SDS011;10774;42.178;26.578;2022-07-22T14:03:37;8.32;;;4.10;;
21233;SDS011;10774;42.178;26.578;2022-07-22T14:06:03;8.75;;;4.25;;
21233;SDS011;10774;42.178;26.578;2022-07-22T14:08:30;9.70;;;4.45;;
21233;SDS011;10774;42.178;26.578;2022-07-22T14:10:56;6.65;;;4.05;;
21233;SDS011;10774;42.178;26.578;2022-07-22T14:13:21;9.13;;;4.18;;
21233;SDS011;10774;42.178;26.578;2022-07-22T14:15:47;5.72;;;3.78;;
21233;SDS011;10774;42.178;26.578;2022-07-22T14:18:12;7.40;;;3.63;;
21233;SDS011;10774;42.178;26.578;2022-07-22T14:20:38;7.10;;;2.53;;
21233;SDS011;10774;42.178;26.578;2022-07-22T14:23:05;3.70;;;1.80;;
21233;SDS011;10774;42.178;26.578;2022-07-22T14:25:31;6.15;;;2.20;;
21233;SDS011;10774;42.178;26.578;2022-07-22T14:27:57;8.48;;;2.05;;
21233;SDS011;10774;42.178;26.578;2022-07-22T14:30:23;6.90;;;2.10;;
21233;SDS011;10774;42.178;26.578;2022-07-22T14:32:49;7.00;;;2.20;;
21233;SDS011;10774;42.178;26.578;2022-07-22T14:35:14;3.25;;;1.60;;
21233;SDS011;10774;42.178;26.578;2022-07-22T14:37:40;6.53;;;1.70;;
21233;SDS011;10774;42.178;26.578;2022-07-22T14:40:05;7.72;;;1.63;;
21233;SDS011;10774;42.178;26.578;2022-07-22T14:42:31;3.25;;;1.60;;
21233;SDS011;10774;42.178;26.578;2022-07-22T14:44:56;4.40;;;1.65;;
21233;SDS011;10774;42.178;26.578;2022-07-22T14:47:22;4.53;;;2.05;;